sensor_id;sensor_type;location;lat;lon;timestamp;P1;durP1;ratioP1;P2;durP2;ratioP2
76236;SDS011;65038;53.200;6.530;2022-12-10T00:01:12;45.72;;;14.98;;
76236;SDS011;65038;53.200;6.530;2022-12-10T00:03:39;44.30;;;13.88;;
76236;SDS011;65038;53.200;6.530;2022-12-10T00:06:06;46.03;;;15.20;;
76236;SDS011;65038;53.200;6.530;2022-12-10T00:08:33;45.35;;;14.40;;
76236;SDS011;65038;53.200;6.530;2022-12-10T00:10:59;50.13;;;13.85;;
76236;SDS011;65038;53.200;6.530;2022-12-10T00:13:25;47.28;;;15.75;;
76236;SDS011;65038;53.200;6.530;2022-12-10T00:15:51;52.08;;;15.57;;
76236;SDS011;65038;53.200;6.530;2022-12-10T00:18:17;45.63;;;14.80;;
76236;SDS011;65038;53.200;6.530;2022-12-10T00:20:43;45.97;;;14.93;;
76236;SDS011;65038;53.200;6.530;2022-12-10T00:23:09;41.90;;;13.65;;
76236;SDS011;65038;53.200;6.530;2022-12-10T00:25:35;47.28;;;14.63;;
76236;SDS011;65038;53.200;6.530;2022-12-10T00:28:01;43.72;;;14.85;;
76236;SDS011;65038;53.200;6.530;2022-12-10T00:30:27;55.15;;;15.23;;
76236;SDS011;65038;53.200;6.530;2022-12-10T00:32:53;46.88;;;14.90;;
76236;SDS011;65038;53.200;6.530;2022-12-10T00:35:19;44.92;;;14.07;;
76236;SDS011;65038;53.200;6.530;2022-12-10T00:37:45;49.90;;;15.30;;
76236;SDS011;65038;53.200;6.530;2022-12-10T00:40:11;42.60;;;14.02;;
76236;SDS011;65038;53.200;6.530;2022-12-10T00:42:37;52.03;;;16.35;;
76236;SDS011;65038;53.200;6.530;2022-12-10T00:45:04;46.25;;;14.48;;
76236;SDS011;65038;53.200;6.530;2022-12-10T00:47:30;45.53;;;14.45;;
76236;SDS011;65038;53.200;6.530;2022-12-10T00:49:56;53.17;;;16.52;;
76236;SDS011;65038;53.200;6.530;2022-12-10T00:52:22;52.33;;;15.60;;
76236;SDS011;65038;53.200;6.530;2022-12-10T00:54:48;55.30;;;16.50;;
76236;SDS011;65038;53.200;6.530;2022-12-10T00:57:14;43.33;;;15.25;;
76236;SDS011;65038;53.200;6.530;2022-12-10T00:59:40;47.83;;;15.52;;
76236;SDS011;65038;53.200;6.530;2022-12-10T01:02:06;51.67;;;16.67;;
76236;SDS011;65038;53.200;6.530;2022-12-10T01:04:32;54.95;;;16.13;;
76236;SDS011;65038;53.200;6.530;2022-12-10T01:06:58;43.80;;;15.15;;
76236;SDS011;65038;53.200;6.530;2022-12-10T01:09:26;51.28;;;16.35;;
76236;SDS011;65038;53.200;6.530;2022-12-10T01:11:53;47.25;;;15.10;;
76236;SDS011;65038;53.200;6.530;2022-12-10T01:14:20;46.42;;;15.85;;
76236;SDS011;65038;53.200;6.530;2022-12-10T01:16:47;47.97;;;15.10;;
76236;SDS011;65038;53.200;6.530;2022-12-10T01:19:13;51.42;;;15.85;;
76236;SDS011;65038;53.200;6.530;2022-12-10T01:21:39;60.08;;;17.05;;
76236;SDS011;65038;53.200;6.530;2022-12-10T01:24:05;54.30;;;15.43;;
76236;SDS011;65038;53.200;6.530;2022-12-10T01:26:33;48.15;;;15.75;;
76236;SDS011;65038;53.200;6.530;2022-12-10T01:29:00;48.42;;;14.77;;
76236;SDS011;65038;53.200;6.530;2022-12-10T01:31:27;53.85;;;15.15;;
76236;SDS011;65038;53.200;6.530;2022-12-10T01:33:54;44.85;;;16.02;;
76236;SDS011;65038;53.200;6.530;2022-12-10T01:36:25;52.65;;;15.13;;
76236;SDS011;65038;53.200;6.530;2022-12-10T01:38:51;48.38;;;15.95;;
76236;SDS011;65038;53.200;6.530;2022-12-10T01:41:19;51.08;;;15.65;;
76236;SDS011;65038;53.200;6.530;2022-12-10T01:43:55;45.03;;;14.95;;
76236;SDS011;65038;53.200;6.530;2022-12-10T01:46:23;55.58;;;16.63;;
76236;SDS011;65038;53.200;6.530;2022-12-10T01:48:49;52.15;;;16.75;;
76236;SDS011;65038;53.200;6.530;2022-12-10T01:51:16;51.38;;;17.27;;
76236;SDS011;65038;53.200;6.530;2022-12-10T01:53:43;60.17;;;17.58;;
76236;SDS011;65038;53.200;6.530;2022-12-10T01:56:10;52.13;;;17.30;;
76236;SDS011;65038;53.200;6.530;2022-12-10T01:58:36;60.05;;;17.33;;
76236;SDS011;65038;53.200;6.530;2022-12-10T02:04:20;50.30;;;14.98;;
76236;SDS011;65038;53.200;6.530;2022-12-10T02:09:43;58.78;;;17.83;;
76236;SDS011;65038;53.200;6.530;2022-12-10T02:17:16;57.55;;;16.13;;
76236;SDS011;65038;53.200;6.530;2022-12-10T02:22:22;54.72;;;17.27;;
76236;SDS011;65038;53.200;6.530;2022-12-10T02:24:49;56.10;;;17.92;;
76236;SDS011;65038;53.200;6.530;2022-12-10T02:27:19;56.92;;;17.67;;
76236;SDS011;65038;53.200;6.530;2022-12-10T02:29:46;62.95;;;18.33;;
76236;SDS011;65038;53.200;6.530;2022-12-10T02:32:14;60.72;;;17.63;;
76236;SDS011;65038;53.200;6.530;2022-12-10T02:34:43;57.50;;;17.23;;
76236;SDS011;65038;53.200;6.530;2022-12-10T02:37:11;58.63;;;17.80;;
76236;SDS011;65038;53.200;6.530;2022-12-10T02:39:39;58.28;;;17.20;;
76236;SDS011;65038;53.200;6.530;2022-12-10T02:42:06;61.17;;;17.92;;
76236;SDS011;65038;53.200;6.530;2022-12-10T02:44:33;63.28;;;17.23;;
76236;SDS011;65038;53.200;6.530;2022-12-10T02:47:01;55.92;;;16.85;;
76236;SDS011;65038;53.200;6.530;2022-12-10T02:49:28;55.55;;;18.05;;
76236;SDS011;65038;53.200;6.530;2022-12-10T02:51:55;61.95;;;18.45;;
76236;SDS011;65038;53.200;6.530;2022-12-10T02:54:37;57.78;;;16.98;;
76236;SDS011;65038;53.200;6.530;2022-12-10T03:00:24;57.60;;;16.05;;
76236;SDS011;65038;53.200;6.530;2022-12-10T03:02:37;58.97;;;17.67;;
76236;SDS011;65038;53.200;6.530;2022-12-10T03:05:29;54.05;;;16.40;;
76236;SDS011;65038;53.200;6.530;2022-12-10T03:10:44;50.75;;;16.25;;
76236;SDS011;65038;53.200;6.530;2022-12-10T03:13:15;57.60;;;18.23;;
76236;SDS011;65038;53.200;6.530;2022-12-10T03:15:42;55.53;;;16.52;;
76236;SDS011;65038;53.200;6.530;2022-12-10T03:18:09;56.42;;;18.25;;
76236;SDS011;65038;53.200;6.530;2022-12-10T03:20:40;57.90;;;19.58;;
76236;SDS011;65038;53.200;6.530;2022-12-10T03:23:08;54.83;;;17.13;;
76236;SDS011;65038;53.200;6.530;2022-12-10T03:25:35;64.00;;;17.00;;
76236;SDS011;65038;53.200;6.530;2022-12-10T03:28:02;59.40;;;17.17;;
76236;SDS011;65038;53.200;6.530;2022-12-10T03:30:28;56.30;;;16.67;;
76236;SDS011;65038;53.200;6.530;2022-12-10T03:32:56;52.05;;;15.93;;
76236;SDS011;65038;53.200;6.530;2022-12-10T03:35:22;63.80;;;18.15;;
76236;SDS011;65038;53.200;6.530;2022-12-10T03:37:49;68.97;;;17.77;;
76236;SDS011;65038;53.200;6.530;2022-12-10T03:40:15;55.17;;;17.80;;
76236;SDS011;65038;53.200;6.530;2022-12-10T03:42:43;57.88;;;17.33;;
76236;SDS011;65038;53.200;6.530;2022-12-10T03:45:09;58.75;;;17.67;;
76236;SDS011;65038;53.200;6.530;2022-12-10T03:47:35;59.33;;;17.77;;
76236;SDS011;65038;53.200;6.530;2022-12-10T03:50:01;55.10;;;16.35;;
76236;SDS011;65038;53.200;6.530;2022-12-10T03:52:28;58.55;;;17.13;;
76236;SDS011;65038;53.200;6.530;2022-12-10T03:54:54;55.75;;;18.27;;
76236;SDS011;65038;53.200;6.530;2022-12-10T03:57:20;53.20;;;16.42;;
76236;SDS011;65038;53.200;6.530;2022-12-10T03:59:46;56.30;;;17.52;;
76236;SDS011;65038;53.200;6.530;2022-12-10T04:02:13;53.88;;;16.42;;
76236;SDS011;65038;53.200;6.530;2022-12-10T04:04:39;45.67;;;15.40;;
76236;SDS011;65038;53.200;6.530;2022-12-10T04:07:05;58.05;;;17.73;;
76236;SDS011;65038;53.200;6.530;2022-12-10T04:09:32;56.45;;;16.83;;
76236;SDS011;65038;53.200;6.530;2022-12-10T04:11:58;61.60;;;17.63;;
76236;SDS011;65038;53.200;6.530;2022-12-10T04:14:24;50.33;;;16.63;;
76236;SDS011;65038;53.200;6.530;2022-12-10T04:17:17;58.85;;;17.42;;
76236;SDS011;65038;53.200;6.530;2022-12-10T04:19:43;61.60;;;17.50;;
76236;SDS011;65038;53.200;6.530;2022-12-10T04:22:09;54.20;;;16.50;;
76236;SDS011;65038;53.200;6.530;2022-12-10T04:24:54;51.97;;;16.92;;
76236;SDS011;65038;53.200;6.530;2022-12-10T04:27:39;50.78;;;16.50;;
76236;SDS011;65038;53.200;6.530;2022-12-10T04:30:06;55.72;;;16.58;;
76236;SDS011;65038;53.200;6.530;2022-12-10T04:32:32;46.50;;;15.98;;
76236;SDS011;65038;53.200;6.530;2022-12-10T04:34:58;51.30;;;17.50;;
76236;SDS011;65038;53.200;6.530;2022-12-10T04:37:25;49.53;;;16.60;;
76236;SDS011;65038;53.200;6.530;2022-12-10T04:39:51;60.63;;;17.42;;
76236;SDS011;65038;53.200;6.530;2022-12-10T04:42:17;56.10;;;16.95;;
76236;SDS011;65038;53.200;6.530;2022-12-10T04:44:43;49.95;;;16.30;;
76236;SDS011;65038;53.200;6.530;2022-12-10T04:47:10;55.30;;;17.63;;
76236;SDS011;65038;53.200;6.530;2022-12-10T04:49:36;52.00;;;17.65;;
76236;SDS011;65038;53.200;6.530;2022-12-10T04:52:02;55.95;;;17.20;;
76236;SDS011;65038;53.200;6.530;2022-12-10T04:54:28;53.47;;;15.68;;
76236;SDS011;65038;53.200;6.530;2022-12-10T04:56:54;51.17;;;15.98;;
76236;SDS011;65038;53.200;6.530;2022-12-10T04:59:20;57.80;;;16.85;;
76236;SDS011;65038;53.200;6.530;2022-12-10T05:01:46;55.97;;;16.67;;
76236;SDS011;65038;53.200;6.530;2022-12-10T05:04:14;67.57;;;18.23;;
76236;SDS011;65038;53.200;6.530;2022-12-10T05:06:41;57.00;;;17.52;;
76236;SDS011;65038;53.200;6.530;2022-12-10T05:09:07;59.45;;;18.08;;
76236;SDS011;65038;53.200;6.530;2022-12-10T05:11:33;69.45;;;18.88;;
76236;SDS011;65038;53.200;6.530;2022-12-10T05:14:00;69.40;;;19.63;;
76236;SDS011;65038;53.200;6.530;2022-12-10T05:16:27;68.15;;;19.55;;
76236;SDS011;65038;53.200;6.530;2022-12-10T05:18:53;76.70;;;19.70;;
76236;SDS011;65038;53.200;6.530;2022-12-10T05:21:20;74.63;;;20.83;;
76236;SDS011;65038;53.200;6.530;2022-12-10T05:23:47;75.20;;;20.15;;
76236;SDS011;65038;53.200;6.530;2022-12-10T05:31:11;81.82;;;20.88;;
76236;SDS011;65038;53.200;6.530;2022-12-10T05:33:37;83.03;;;20.77;;
76236;SDS011;65038;53.200;6.530;2022-12-10T05:36:03;67.53;;;19.42;;
76236;SDS011;65038;53.200;6.530;2022-12-10T05:38:29;79.10;;;20.83;;
76236;SDS011;65038;53.200;6.530;2022-12-10T05:41:00;83.18;;;20.52;;
76236;SDS011;65038;53.200;6.530;2022-12-10T05:43:26;93.88;;;21.92;;
76236;SDS011;65038;53.200;6.530;2022-12-10T05:45:52;88.85;;;21.98;;
76236;SDS011;65038;53.200;6.530;2022-12-10T05:48:18;87.13;;;21.95;;
76236;SDS011;65038;53.200;6.530;2022-12-10T05:50:45;86.20;;;21.65;;
76236;SDS011;65038;53.200;6.530;2022-12-10T05:53:11;82.95;;;20.00;;
76236;SDS011;65038;53.200;6.530;2022-12-10T05:55:38;87.43;;;19.90;;
76236;SDS011;65038;53.200;6.530;2022-12-10T05:58:04;93.82;;;20.13;;
76236;SDS011;65038;53.200;6.530;2022-12-10T06:00:30;82.60;;;20.88;;
76236;SDS011;65038;53.200;6.530;2022-12-10T06:02:56;141.27;;;23.85;;
76236;SDS011;65038;53.200;6.530;2022-12-10T06:05:22;103.30;;;21.23;;
76236;SDS011;65038;53.200;6.530;2022-12-10T06:07:48;169.15;;;24.08;;
76236;SDS011;65038;53.200;6.530;2022-12-10T06:10:14;123.55;;;22.13;;
76236;SDS011;65038;53.200;6.530;2022-12-10T06:12:40;168.77;;;25.55;;
76236;SDS011;65038;53.200;6.530;2022-12-10T06:15:06;103.03;;;22.23;;
76236;SDS011;65038;53.200;6.530;2022-12-10T06:17:33;148.68;;;23.80;;
76236;SDS011;65038;53.200;6.530;2022-12-10T06:19:59;105.95;;;20.13;;
76236;SDS011;65038;53.200;6.530;2022-12-10T06:22:25;130.82;;;21.70;;
76236;SDS011;65038;53.200;6.530;2022-12-10T06:24:51;161.35;;;23.00;;
76236;SDS011;65038;53.200;6.530;2022-12-10T06:27:17;131.38;;;23.75;;
76236;SDS011;65038;53.200;6.530;2022-12-10T06:29:43;96.50;;;22.65;;
76236;SDS011;65038;53.200;6.530;2022-12-10T06:32:10;116.53;;;20.70;;
76236;SDS011;65038;53.200;6.530;2022-12-10T06:34:36;136.10;;;21.90;;
76236;SDS011;65038;53.200;6.530;2022-12-10T06:37:01;107.35;;;20.63;;
76236;SDS011;65038;53.200;6.530;2022-12-10T06:39:27;133.27;;;23.65;;
76236;SDS011;65038;53.200;6.530;2022-12-10T06:41:54;128.18;;;22.08;;
76236;SDS011;65038;53.200;6.530;2022-12-10T06:44:20;168.10;;;23.65;;
76236;SDS011;65038;53.200;6.530;2022-12-10T06:46:46;162.45;;;25.20;;
76236;SDS011;65038;53.200;6.530;2022-12-10T06:49:12;158.70;;;22.70;;
76236;SDS011;65038;53.200;6.530;2022-12-10T06:51:38;263.77;;;24.77;;
76236;SDS011;65038;53.200;6.530;2022-12-10T06:54:04;201.05;;;25.05;;
76236;SDS011;65038;53.200;6.530;2022-12-10T06:56:30;185.02;;;22.02;;
76236;SDS011;65038;53.200;6.530;2022-12-10T06:58:56;207.88;;;25.33;;
76236;SDS011;65038;53.200;6.530;2022-12-10T07:01:23;121.88;;;20.88;;
76236;SDS011;65038;53.200;6.530;2022-12-10T07:03:52;154.88;;;21.67;;
76236;SDS011;65038;53.200;6.530;2022-12-10T07:06:20;207.63;;;24.65;;
76236;SDS011;65038;53.200;6.530;2022-12-10T07:08:46;242.55;;;25.00;;
76236;SDS011;65038;53.200;6.530;2022-12-10T07:11:13;131.82;;;20.80;;
76236;SDS011;65038;53.200;6.530;2022-12-10T07:13:39;149.90;;;21.83;;
76236;SDS011;65038;53.200;6.530;2022-12-10T07:16:15;136.35;;;22.15;;
76236;SDS011;65038;53.200;6.530;2022-12-10T07:18:42;169.23;;;23.60;;
76236;SDS011;65038;53.200;6.530;2022-12-10T07:21:15;115.40;;;21.08;;
76236;SDS011;65038;53.200;6.530;2022-12-10T07:23:41;181.77;;;24.95;;
76236;SDS011;65038;53.200;6.530;2022-12-10T07:26:07;183.55;;;25.42;;
76236;SDS011;65038;53.200;6.530;2022-12-10T07:28:33;137.02;;;22.67;;
76236;SDS011;65038;53.200;6.530;2022-12-10T07:31:03;149.73;;;22.75;;
76236;SDS011;65038;53.200;6.530;2022-12-10T07:33:29;123.70;;;20.98;;
76236;SDS011;65038;53.200;6.530;2022-12-10T07:35:55;124.03;;;18.90;;
76236;SDS011;65038;53.200;6.530;2022-12-10T07:38:22;125.78;;;20.15;;
76236;SDS011;65038;53.200;6.530;2022-12-10T07:40:48;173.25;;;25.00;;
76236;SDS011;65038;53.200;6.530;2022-12-10T07:43:14;128.40;;;19.00;;
76236;SDS011;65038;53.200;6.530;2022-12-10T07:45:40;123.70;;;20.55;;
76236;SDS011;65038;53.200;6.530;2022-12-10T07:48:07;128.82;;;21.13;;
76236;SDS011;65038;53.200;6.530;2022-12-10T07:50:33;101.07;;;21.27;;
76236;SDS011;65038;53.200;6.530;2022-12-10T07:52:59;131.95;;;20.80;;
76236;SDS011;65038;53.200;6.530;2022-12-10T07:55:25;178.68;;;21.35;;
76236;SDS011;65038;53.200;6.530;2022-12-10T07:57:51;99.15;;;17.52;;
76236;SDS011;65038;53.200;6.530;2022-12-10T08:00:17;150.05;;;20.58;;
76236;SDS011;65038;53.200;6.530;2022-12-10T08:02:43;101.07;;;18.80;;
76236;SDS011;65038;53.200;6.530;2022-12-10T08:05:09;104.93;;;17.42;;
76236;SDS011;65038;53.200;6.530;2022-12-10T08:07:35;119.05;;;18.65;;
76236;SDS011;65038;53.200;6.530;2022-12-10T08:10:02;117.53;;;20.52;;
76236;SDS011;65038;53.200;6.530;2022-12-10T08:12:28;152.70;;;21.73;;
76236;SDS011;65038;53.200;6.530;2022-12-10T08:14:54;153.68;;;22.63;;
76236;SDS011;65038;53.200;6.530;2022-12-10T08:17:20;113.75;;;20.73;;
76236;SDS011;65038;53.200;6.530;2022-12-10T08:19:46;131.77;;;22.83;;
76236;SDS011;65038;53.200;6.530;2022-12-10T08:22:12;125.53;;;20.88;;
76236;SDS011;65038;53.200;6.530;2022-12-10T08:24:38;188.00;;;23.88;;
76236;SDS011;65038;53.200;6.530;2022-12-10T08:27:04;151.38;;;22.63;;
76236;SDS011;65038;53.200;6.530;2022-12-10T08:29:30;88.32;;;18.25;;
76236;SDS011;65038;53.200;6.530;2022-12-10T08:31:56;145.05;;;19.92;;
76236;SDS011;65038;53.200;6.530;2022-12-10T08:34:22;138.27;;;21.40;;
76236;SDS011;65038;53.200;6.530;2022-12-10T08:36:48;105.22;;;19.08;;
76236;SDS011;65038;53.200;6.530;2022-12-10T08:39:14;124.45;;;20.10;;
76236;SDS011;65038;53.200;6.530;2022-12-10T08:41:41;121.15;;;19.98;;
76236;SDS011;65038;53.200;6.530;2022-12-10T08:44:08;116.03;;;17.40;;
76236;SDS011;65038;53.200;6.530;2022-12-10T08:46:34;137.30;;;18.40;;
76236;SDS011;65038;53.200;6.530;2022-12-10T08:49:00;136.07;;;19.73;;
76236;SDS011;65038;53.200;6.530;2022-12-10T08:51:26;89.82;;;17.95;;
76236;SDS011;65038;53.200;6.530;2022-12-10T08:53:53;87.55;;;18.02;;
76236;SDS011;65038;53.200;6.530;2022-12-10T08:56:19;107.15;;;19.80;;
76236;SDS011;65038;53.200;6.530;2022-12-10T08:58:45;91.80;;;18.55;;
76236;SDS011;65038;53.200;6.530;2022-12-10T09:01:13;90.40;;;19.02;;
76236;SDS011;65038;53.200;6.530;2022-12-10T09:03:39;52.17;;;14.38;;
76236;SDS011;65038;53.200;6.530;2022-12-10T09:06:06;59.88;;;14.55;;
76236;SDS011;65038;53.200;6.530;2022-12-10T09:08:32;59.67;;;13.68;;
76236;SDS011;65038;53.200;6.530;2022-12-10T09:11:03;64.63;;;13.68;;
76236;SDS011;65038;53.200;6.530;2022-12-10T09:13:29;61.00;;;14.50;;
76236;SDS011;65038;53.200;6.530;2022-12-10T09:15:55;49.75;;;13.75;;
76236;SDS011;65038;53.200;6.530;2022-12-10T09:18:21;77.13;;;14.77;;
76236;SDS011;65038;53.200;6.530;2022-12-10T09:20:47;82.60;;;14.77;;
76236;SDS011;65038;53.200;6.530;2022-12-10T09:23:13;63.63;;;14.13;;
76236;SDS011;65038;53.200;6.530;2022-12-10T09:25:39;72.18;;;13.75;;
76236;SDS011;65038;53.200;6.530;2022-12-10T09:28:05;86.80;;;15.85;;
76236;SDS011;65038;53.200;6.530;2022-12-10T09:30:31;75.78;;;14.50;;
76236;SDS011;65038;53.200;6.530;2022-12-10T09:32:57;85.82;;;14.40;;
76236;SDS011;65038;53.200;6.530;2022-12-10T09:35:23;67.65;;;13.55;;
76236;SDS011;65038;53.200;6.530;2022-12-10T09:37:49;52.92;;;13.35;;
76236;SDS011;65038;53.200;6.530;2022-12-10T09:40:21;57.97;;;12.57;;
76236;SDS011;65038;53.200;6.530;2022-12-10T09:42:53;66.57;;;14.77;;
76236;SDS011;65038;53.200;6.530;2022-12-10T09:45:43;62.63;;;14.90;;
76236;SDS011;65038;53.200;6.530;2022-12-10T09:48:30;52.25;;;13.80;;
76236;SDS011;65038;53.200;6.530;2022-12-10T09:51:31;60.60;;;13.85;;
76236;SDS011;65038;53.200;6.530;2022-12-10T09:53:51;53.50;;;15.10;;
76236;SDS011;65038;53.200;6.530;2022-12-10T09:56:26;60.75;;;14.02;;
76236;SDS011;65038;53.200;6.530;2022-12-10T09:58:54;88.75;;;14.80;;
76236;SDS011;65038;53.200;6.530;2022-12-10T10:01:20;57.72;;;14.07;;
76236;SDS011;65038;53.200;6.530;2022-12-10T10:03:48;59.45;;;14.18;;
76236;SDS011;65038;53.200;6.530;2022-12-10T10:06:15;50.97;;;14.57;;
76236;SDS011;65038;53.200;6.530;2022-12-10T10:08:42;52.83;;;15.18;;
76236;SDS011;65038;53.200;6.530;2022-12-10T10:11:14;46.63;;;13.55;;
76236;SDS011;65038;53.200;6.530;2022-12-10T10:13:46;56.22;;;14.77;;
76236;SDS011;65038;53.200;6.530;2022-12-10T10:18:52;48.30;;;14.05;;
76236;SDS011;65038;53.200;6.530;2022-12-10T10:21:23;56.97;;;14.50;;
76236;SDS011;65038;53.200;6.530;2022-12-10T10:23:50;46.90;;;14.70;;
76236;SDS011;65038;53.200;6.530;2022-12-10T10:26:16;47.92;;;13.75;;
76236;SDS011;65038;53.200;6.530;2022-12-10T10:28:42;57.22;;;15.27;;
76236;SDS011;65038;53.200;6.530;2022-12-10T10:31:20;44.65;;;13.40;;
76236;SDS011;65038;53.200;6.530;2022-12-10T10:33:56;46.35;;;14.88;;
76236;SDS011;65038;53.200;6.530;2022-12-10T10:36:26;48.60;;;14.25;;
76236;SDS011;65038;53.200;6.530;2022-12-10T10:38:53;43.63;;;13.23;;
76236;SDS011;65038;53.200;6.530;2022-12-10T10:41:19;43.63;;;14.75;;
76236;SDS011;65038;53.200;6.530;2022-12-10T10:43:45;47.03;;;13.52;;
76236;SDS011;65038;53.200;6.530;2022-12-10T10:48:38;43.25;;;13.15;;
76236;SDS011;65038;53.200;6.530;2022-12-10T10:51:12;52.13;;;14.85;;
76236;SDS011;65038;53.200;6.530;2022-12-10T10:53:44;42.95;;;12.73;;
76236;SDS011;65038;53.200;6.530;2022-12-10T11:01:15;40.67;;;13.57;;
76236;SDS011;65038;53.200;6.530;2022-12-10T11:03:46;44.95;;;14.82;;
76236;SDS011;65038;53.200;6.530;2022-12-10T11:06:12;42.83;;;14.57;;
76236;SDS011;65038;53.200;6.530;2022-12-10T11:08:39;48.35;;;14.18;;
76236;SDS011;65038;53.200;6.530;2022-12-10T11:11:11;49.85;;;14.52;;
76236;SDS011;65038;53.200;6.530;2022-12-10T11:13:38;48.20;;;14.52;;
76236;SDS011;65038;53.200;6.530;2022-12-10T11:16:12;45.33;;;14.23;;
76236;SDS011;65038;53.200;6.530;2022-12-10T11:18:39;44.38;;;13.07;;
76236;SDS011;65038;53.200;6.530;2022-12-10T11:23:40;47.88;;;15.00;;
76236;SDS011;65038;53.200;6.530;2022-12-10T11:31:23;52.03;;;14.45;;
76236;SDS011;65038;53.200;6.530;2022-12-10T11:44:29;45.85;;;15.00;;
76236;SDS011;65038;53.200;6.530;2022-12-10T11:49:28;79.70;;;16.73;;
76236;SDS011;65038;53.200;6.530;2022-12-10T11:52:09;57.22;;;15.35;;
76236;SDS011;65038;53.200;6.530;2022-12-10T11:54:48;50.65;;;14.15;;
76236;SDS011;65038;53.200;6.530;2022-12-10T11:59:50;50.60;;;15.93;;
76236;SDS011;65038;53.200;6.530;2022-12-10T12:13:00;51.42;;;15.60;;
76236;SDS011;65038;53.200;6.530;2022-12-10T12:15:32;51.20;;;16.38;;
76236;SDS011;65038;53.200;6.530;2022-12-10T12:18:04;58.33;;;14.93;;
76236;SDS011;65038;53.200;6.530;2022-12-10T12:20:37;59.38;;;15.00;;
76236;SDS011;65038;53.200;6.530;2022-12-10T12:23:22;53.53;;;15.05;;
76236;SDS011;65038;53.200;6.530;2022-12-10T12:25:51;53.25;;;14.05;;
76236;SDS011;65038;53.200;6.530;2022-12-10T12:28:23;70.32;;;13.90;;
76236;SDS011;65038;53.200;6.530;2022-12-10T12:30:53;65.13;;;16.80;;
76236;SDS011;65038;53.200;6.530;2022-12-10T12:33:28;50.67;;;14.07;;
76236;SDS011;65038;53.200;6.530;2022-12-10T12:35:56;46.20;;;14.57;;
76236;SDS011;65038;53.200;6.530;2022-12-10T12:38:31;51.88;;;14.45;;
76236;SDS011;65038;53.200;6.530;2022-12-10T12:41:13;45.70;;;13.70;;
76236;SDS011;65038;53.200;6.530;2022-12-10T12:43:44;52.15;;;15.15;;
76236;SDS011;65038;53.200;6.530;2022-12-10T12:46:15;52.03;;;14.32;;
76236;SDS011;65038;53.200;6.530;2022-12-10T12:48:46;66.35;;;16.17;;
76236;SDS011;65038;53.200;6.530;2022-12-10T12:53:44;63.17;;;15.93;;
76236;SDS011;65038;53.200;6.530;2022-12-10T13:01:54;60.72;;;16.67;;
76236;SDS011;65038;53.200;6.530;2022-12-10T13:04:12;63.15;;;16.08;;
76236;SDS011;65038;53.200;6.530;2022-12-10T13:06:39;61.13;;;15.95;;
76236;SDS011;65038;53.200;6.530;2022-12-10T13:11:39;74.70;;;16.02;;
76236;SDS011;65038;53.200;6.530;2022-12-10T13:24:20;67.10;;;15.43;;
76236;SDS011;65038;53.200;6.530;2022-12-10T13:32:17;55.92;;;15.05;;
76236;SDS011;65038;53.200;6.530;2022-12-10T13:34:43;40.78;;;13.63;;
76236;SDS011;65038;53.200;6.530;2022-12-10T13:39:46;75.47;;;16.27;;
76236;SDS011;65038;53.200;6.530;2022-12-10T13:45:01;77.32;;;16.83;;
76236;SDS011;65038;53.200;6.530;2022-12-10T13:50:06;53.15;;;14.48;;
76236;SDS011;65038;53.200;6.530;2022-12-10T13:58:00;60.53;;;15.50;;
76236;SDS011;65038;53.200;6.530;2022-12-10T14:00:41;62.80;;;17.45;;
76236;SDS011;65038;53.200;6.530;2022-12-10T14:08:34;59.17;;;14.65;;
76236;SDS011;65038;53.200;6.530;2022-12-10T14:11:02;53.47;;;14.98;;
76236;SDS011;65038;53.200;6.530;2022-12-10T14:13:40;77.97;;;17.40;;
76236;SDS011;65038;53.200;6.530;2022-12-10T14:16:12;67.90;;;17.55;;
76236;SDS011;65038;53.200;6.530;2022-12-10T14:18:41;57.17;;;16.85;;
76236;SDS011;65038;53.200;6.530;2022-12-10T14:21:07;66.30;;;16.65;;
76236;SDS011;65038;53.200;6.530;2022-12-10T14:23:35;62.70;;;17.58;;
76236;SDS011;65038;53.200;6.530;2022-12-10T14:26:11;70.60;;;17.92;;
76236;SDS011;65038;53.200;6.530;2022-12-10T14:28:38;61.38;;;17.77;;
76236;SDS011;65038;53.200;6.530;2022-12-10T14:31:05;65.35;;;17.67;;
76236;SDS011;65038;53.200;6.530;2022-12-10T14:33:31;76.43;;;18.00;;
76236;SDS011;65038;53.200;6.530;2022-12-10T14:35:58;75.65;;;18.20;;
76236;SDS011;65038;53.200;6.530;2022-12-10T14:38:27;87.53;;;18.85;;
76236;SDS011;65038;53.200;6.530;2022-12-10T14:40:55;69.35;;;17.42;;
76236;SDS011;65038;53.200;6.530;2022-12-10T14:43:22;63.50;;;16.23;;
76236;SDS011;65038;53.200;6.530;2022-12-10T14:45:56;64.07;;;17.10;;
76236;SDS011;65038;53.200;6.530;2022-12-10T14:48:23;73.15;;;16.40;;
76236;SDS011;65038;53.200;6.530;2022-12-10T14:50:49;65.57;;;16.30;;
76236;SDS011;65038;53.200;6.530;2022-12-10T14:53:17;56.53;;;15.38;;
76236;SDS011;65038;53.200;6.530;2022-12-10T14:55:44;66.20;;;16.48;;
76236;SDS011;65038;53.200;6.530;2022-12-10T14:58:14;66.57;;;14.90;;
76236;SDS011;65038;53.200;6.530;2022-12-10T15:00:41;54.38;;;13.75;;
76236;SDS011;65038;53.200;6.530;2022-12-10T15:03:08;56.63;;;14.85;;
76236;SDS011;65038;53.200;6.530;2022-12-10T15:05:35;59.22;;;14.23;;
76236;SDS011;65038;53.200;6.530;2022-12-10T15:08:05;53.63;;;14.73;;
76236;SDS011;65038;53.200;6.530;2022-12-10T15:10:32;48.45;;;13.00;;
76236;SDS011;65038;53.200;6.530;2022-12-10T15:12:59;43.13;;;11.57;;
76236;SDS011;65038;53.200;6.530;2022-12-10T15:15:30;44.00;;;12.35;;
76236;SDS011;65038;53.200;6.530;2022-12-10T15:18:00;44.72;;;13.05;;
76236;SDS011;65038;53.200;6.530;2022-12-10T15:20:39;47.63;;;12.30;;
76236;SDS011;65038;53.200;6.530;2022-12-10T15:25:52;42.67;;;12.45;;
76236;SDS011;65038;53.200;6.530;2022-12-10T15:28:25;47.10;;;12.73;;
76236;SDS011;65038;53.200;6.530;2022-12-10T15:30:51;51.95;;;13.25;;
76236;SDS011;65038;53.200;6.530;2022-12-10T15:35:47;47.75;;;12.52;;
76236;SDS011;65038;53.200;6.530;2022-12-10T15:38:13;51.47;;;12.90;;
76236;SDS011;65038;53.200;6.530;2022-12-10T15:40:39;45.15;;;12.40;;
76236;SDS011;65038;53.200;6.530;2022-12-10T15:43:25;44.50;;;12.27;;
76236;SDS011;65038;53.200;6.530;2022-12-10T15:45:52;53.38;;;13.27;;
76236;SDS011;65038;53.200;6.530;2022-12-10T15:48:19;53.33;;;13.65;;
76236;SDS011;65038;53.200;6.530;2022-12-10T15:50:46;60.67;;;14.00;;
76236;SDS011;65038;53.200;6.530;2022-12-10T15:53:14;49.92;;;14.70;;
76236;SDS011;65038;53.200;6.530;2022-12-10T15:55:40;53.13;;;14.13;;
76236;SDS011;65038;53.200;6.530;2022-12-10T15:58:12;43.13;;;13.27;;
76236;SDS011;65038;53.200;6.530;2022-12-10T16:00:39;48.78;;;12.55;;
76236;SDS011;65038;53.200;6.530;2022-12-10T16:03:09;51.78;;;13.50;;
76236;SDS011;65038;53.200;6.530;2022-12-10T16:05:36;61.53;;;14.48;;
76236;SDS011;65038;53.200;6.530;2022-12-10T16:10:32;96.72;;;18.05;;
76236;SDS011;65038;53.200;6.530;2022-12-10T16:12:59;91.22;;;16.50;;
76236;SDS011;65038;53.200;6.530;2022-12-10T16:15:28;85.85;;;16.98;;
76236;SDS011;65038;53.200;6.530;2022-12-10T16:17:55;104.03;;;18.90;;
76236;SDS011;65038;53.200;6.530;2022-12-10T16:20:25;100.10;;;16.80;;
76236;SDS011;65038;53.200;6.530;2022-12-10T16:22:52;77.95;;;16.10;;
76236;SDS011;65038;53.200;6.530;2022-12-10T16:25:18;93.82;;;17.63;;